createdAt,value
2024-01-15T00:01:46.437Z,-4.50
2024-01-15T00:04:15.274Z,-4.50
2024-01-15T00:06:44.080Z,-4.50
2024-01-15T00:09:12.898Z,-4.50
2024-01-15T00:11:41.503Z,-4.70
2024-01-15T00:14:10.357Z,-4.70
2024-01-15T00:16:38.932Z,-4.70
2024-01-15T00:19:07.616Z,-4.70
2024-01-15T00:21:36.250Z,-4.70
2024-01-15T00:24:05.145Z,-4.70
2024-01-15T00:26:33.679Z,-5.20
2024-01-15T00:29:02.256Z,-5.20
2024-01-15T00:31:32.006Z,-5.20
2024-01-15T00:34:00.885Z,-5.20
2024-01-15T00:36:29.572Z,-5.20
2024-01-15T00:38:58.175Z,-4.90
2024-01-15T00:41:26.761Z,-5.20
2024-01-15T00:43:55.377Z,-5.20
2024-01-15T00:46:24.041Z,-5.30
2024-01-15T00:48:52.940Z,-5.30
2024-01-15T00:51:21.661Z,-5.40
2024-01-15T00:53:50.294Z,-5.40
2024-01-15T00:56:19.148Z,-5.40
2024-01-15T00:58:47.712Z,-5.40
2024-01-15T01:01:16.500Z,-5.60
2024-01-15T01:03:45.252Z,-5.60
2024-01-15T01:06:13.948Z,-5.60
2024-01-15T01:08:42.695Z,-5.50
2024-01-15T01:11:16.165Z,-5.10
2024-01-15T01:13:45.107Z,-5.30
2024-01-15T01:16:13.802Z,-5.40
2024-01-15T01:18:43.026Z,-5.40
2024-01-15T01:21:11.932Z,-5.50
2024-01-15T01:23:40.628Z,-5.80
2024-01-15T01:26:09.285Z,-5.80
2024-01-15T01:28:37.970Z,-5.80
2024-01-15T01:31:07.125Z,-5.80
2024-01-15T01:33:35.992Z,-5.80
2024-01-15T01:36:11.202Z,-5.80
2024-01-15T01:38:40.794Z,-5.60
2024-01-15T01:41:10.050Z,-5.60
2024-01-15T01:43:39.192Z,-5.70
2024-01-15T01:46:09.743Z,-5.80
2024-01-15T01:48:39.317Z,-5.80
2024-01-15T01:51:08.910Z,-5.80
2024-01-15T01:53:39.094Z,-5.80
2024-01-15T01:56:08.912Z,-5.80
2024-01-15T01:58:38.055Z,-5.60
2024-01-15T02:01:08.317Z,-5.50
2024-01-15T02:03:38.008Z,-5.60
2024-01-15T02:06:07.344Z,-5.60
2024-01-15T02:08:37.401Z,-5.60
2024-01-15T02:11:06.905Z,-5.50
2024-01-15T02:13:35.884Z,-5.60
2024-01-15T02:16:05.163Z,-5.50
2024-01-15T02:18:46.549Z,-5.80
2024-01-15T02:21:18.363Z,-5.50
2024-01-15T02:23:47.962Z,-5.80
2024-01-15T02:26:17.654Z,-5.60
2024-01-15T02:28:47.019Z,-5.80
2024-01-15T02:31:15.847Z,-5.80
2024-01-15T02:33:46.678Z,-5.50
2024-01-15T02:36:16.037Z,-5.70
2024-01-15T02:38:45.144Z,-5.80
2024-01-15T02:41:16.581Z,-5.70
2024-01-15T02:43:45.911Z,-5.80
2024-01-15T02:46:14.709Z,-6.00
2024-01-15T02:48:43.815Z,-5.70
2024-01-15T02:51:13.214Z,-5.90
2024-01-15T02:53:42.620Z,-5.80
2024-01-15T02:56:11.869Z,-5.60
2024-01-15T02:58:41.209Z,-5.80
2024-01-15T03:01:11.165Z,-6.00
2024-01-15T03:03:40.431Z,-5.80
2024-01-15T03:06:09.796Z,-5.80
2024-01-15T03:08:38.631Z,-5.80
2024-01-15T03:11:07.961Z,-5.80
2024-01-15T03:13:39.541Z,-5.80
2024-01-15T03:16:08.910Z,-5.80
2024-01-15T03:18:37.884Z,-5.80
2024-01-15T03:21:08.269Z,-5.80
2024-01-15T03:23:37.007Z,-5.60
2024-01-15T03:26:05.850Z,-5.60
2024-01-15T03:28:34.557Z,-5.60
2024-01-15T03:31:03.324Z,-6.00
2024-01-15T03:33:32.252Z,-5.80
2024-01-15T03:36:01.861Z,-5.70
2024-01-15T03:38:31.500Z,-5.80
2024-01-15T03:41:00.174Z,-5.60
2024-01-15T03:43:30.087Z,-5.60
2024-01-15T03:45:58.845Z,-5.80
2024-01-15T03:48:27.718Z,-6.00
2024-01-15T03:50:56.480Z,-5.80
2024-01-15T03:53:25.069Z,-5.90
2024-01-15T03:55:54.509Z,-5.90
2024-01-15T03:58:23.226Z,-5.80
2024-01-15T04:00:52.024Z,-5.80
2024-01-15T04:03:20.861Z,-5.80
2024-01-15T04:05:49.597Z,-5.80
2024-01-15T04:08:18.292Z,-5.60
2024-01-15T04:10:46.933Z,-5.40
2024-01-15T04:13:15.513Z,-5.50
2024-01-15T04:15:44.261Z,-5.70
2024-01-15T04:18:12.993Z,-5.60
2024-01-15T04:20:41.692Z,-5.70
2024-01-15T04:23:10.319Z,-5.70
2024-01-15T04:25:38.933Z,-5.80
2024-01-15T04:28:07.725Z,-5.80
2024-01-15T04:30:37.915Z,-5.80
2024-01-15T04:33:06.884Z,-5.70
2024-01-15T04:35:36.108Z,-5.70
2024-01-15T04:38:04.808Z,-5.60
2024-01-15T04:40:33.396Z,-5.50
2024-01-15T04:43:01.972Z,-5.80
2024-01-15T04:45:30.704Z,-5.80
2024-01-15T04:47:59.956Z,-5.80
2024-01-15T04:50:28.554Z,-5.80
2024-01-15T04:52:57.137Z,-5.80
2024-01-15T04:55:25.823Z,-5.90
2024-01-15T04:57:54.983Z,-5.80
2024-01-15T05:00:23.643Z,-5.90
2024-01-15T05:02:52.329Z,-5.90
2024-01-15T05:05:20.878Z,-5.80
2024-01-15T05:07:49.492Z,-5.70
2024-01-15T05:10:18.086Z,-5.80
2024-01-15T05:12:46.748Z,-6.00
2024-01-15T05:15:15.489Z,-5.90
2024-01-15T05:17:44.141Z,-5.80
2024-01-15T05:20:13.724Z,-5.80
2024-01-15T05:22:42.457Z,-5.80
2024-01-15T05:25:11.105Z,-5.80
2024-01-15T05:27:39.918Z,-5.60
2024-01-15T05:30:08.976Z,-5.60
2024-01-15T05:32:37.781Z,-5.90
2024-01-15T05:35:07.029Z,-5.80
2024-01-15T05:37:35.606Z,-5.70
2024-01-15T05:40:06.951Z,-5.80
2024-01-15T05:42:39.268Z,-5.70
2024-01-15T05:45:09.261Z,-5.80
2024-01-15T05:47:38.070Z,-6.00
2024-01-15T05:50:07.090Z,-5.80
2024-01-15T05:52:35.718Z,-6.00
2024-01-15T05:55:05.138Z,-5.80
2024-01-15T05:57:33.745Z,-5.70
2024-01-15T06:00:03.228Z,-5.90
2024-01-15T06:02:31.874Z,-5.90
2024-01-15T06:05:00.492Z,-5.80
2024-01-15T06:07:29.049Z,-5.80
2024-01-15T06:09:59.099Z,-5.70
2024-01-15T06:12:28.259Z,-5.80
2024-01-15T06:14:56.899Z,-5.60
2024-01-15T06:17:25.502Z,-5.60
2024-01-15T06:19:54.302Z,-5.50
2024-01-15T06:22:22.979Z,-5.60
2024-01-15T06:24:51.684Z,-5.80
2024-01-15T06:27:20.327Z,-5.70
2024-01-15T06:29:51.798Z,-5.90
2024-01-15T06:32:20.636Z,-5.80
2024-01-15T06:34:49.320Z,-5.80
2024-01-15T06:37:17.935Z,-5.90
2024-01-15T06:39:46.532Z,-5.90
2024-01-15T06:42:15.167Z,-6.00
2024-01-15T06:44:43.811Z,-5.90
2024-01-15T06:47:12.901Z,-5.90
2024-01-15T06:49:41.513Z,-5.90
2024-01-15T06:52:10.126Z,-6.00
2024-01-15T06:54:39.135Z,-5.70
2024-01-15T06:57:08.781Z,-5.80
2024-01-15T06:59:38.077Z,-6.00
2024-01-15T07:02:06.850Z,-5.90
2024-01-15T07:04:35.412Z,-6.00
2024-01-15T07:07:04.133Z,-6.00
2024-01-15T07:09:32.794Z,-5.80
2024-01-15T07:12:01.610Z,-5.70
2024-01-15T07:14:30.148Z,-5.80
2024-01-15T07:16:59.177Z,-5.70
2024-01-15T07:19:27.861Z,-5.80
2024-01-15T07:21:57.386Z,-5.80
2024-01-15T07:24:26.192Z,-5.80
2024-01-15T07:26:54.799Z,-5.80
2024-01-15T07:29:23.485Z,-5.60
2024-01-15T07:31:53.260Z,-5.70
2024-01-15T07:34:22.183Z,-5.80
2024-01-15T07:36:50.897Z,-5.80
2024-01-15T07:39:20.023Z,-5.90
2024-01-15T07:41:48.687Z,-5.80
2024-01-15T07:44:17.219Z,-5.80
2024-01-15T07:46:49.549Z,-5.90
2024-01-15T07:49:18.925Z,-5.80
2024-01-15T07:51:47.828Z,-5.90
2024-01-15T07:54:16.459Z,-5.90
2024-01-15T07:57:07.595Z,-5.90
2024-01-15T07:59:37.641Z,-6.00
2024-01-15T08:02:06.244Z,-5.90
2024-01-15T08:04:34.963Z,-6.10
2024-01-15T08:07:04.953Z,-6.10
2024-01-15T08:09:33.522Z,-6.10
2024-01-15T08:12:02.768Z,-6.10
2024-01-15T08:14:31.511Z,-6.10
2024-01-15T08:17:00.144Z,-6.10
2024-01-15T08:19:28.851Z,-6.10
2024-01-15T08:21:57.638Z,-6.10
2024-01-15T08:24:26.247Z,-6.10
2024-01-15T08:26:54.860Z,-6.10
2024-01-15T08:29:23.959Z,-6.10
2024-01-15T08:31:52.790Z,-6.10
2024-01-15T08:34:21.540Z,-6.20
2024-01-15T08:36:50.268Z,-6.00
2024-01-15T08:39:20.181Z,-6.00
2024-01-15T08:41:48.830Z,-5.90
2024-01-15T08:44:17.411Z,-6.20
2024-01-15T08:46:46.011Z,-5.90
2024-01-15T08:49:14.680Z,-6.10
2024-01-15T08:51:43.368Z,-6.20
2024-01-15T08:54:12.013Z,-6.00
2024-01-15T08:56:42.083Z,-6.10
2024-01-15T08:59:10.741Z,-6.10
2024-01-15T09:01:41.911Z,-6.30
2024-01-15T09:04:11.161Z,-6.30
2024-01-15T09:06:39.778Z,-6.30
2024-01-15T09:09:08.543Z,-6.30
2024-01-15T09:11:37.136Z,-6.30
2024-01-15T09:14:05.662Z,-6.30
2024-01-15T09:16:34.279Z,-6.10
2024-01-15T09:19:03.288Z,-6.10
2024-01-15T09:21:31.912Z,-6.10
2024-01-15T09:24:00.644Z,-6.10
2024-01-15T09:26:29.651Z,-6.10
2024-01-15T09:28:59.684Z,-6.10
2024-01-15T09:31:29.085Z,-5.90
2024-01-15T09:34:02.236Z,-6.10
2024-01-15T09:36:30.882Z,-6.20
2024-01-15T09:38:59.628Z,-6.00
2024-01-15T09:41:28.343Z,-6.00
2024-01-15T09:43:57.000Z,-6.00
2024-01-15T09:46:25.891Z,-5.80
2024-01-15T09:48:54.505Z,-6.20
2024-01-15T09:51:23.657Z,-5.90
2024-01-15T09:53:53.650Z,-6.00
2024-01-15T09:56:22.484Z,-6.00
2024-01-15T09:58:53.286Z,-5.90
2024-01-15T10:01:23.343Z,-6.00
2024-01-15T10:03:53.114Z,-6.00
2024-01-15T10:06:24.912Z,-5.90
2024-01-15T10:08:54.248Z,-6.00
2024-01-15T10:11:23.687Z,-5.90
2024-01-15T10:13:57.671Z,-5.90
2024-01-15T10:16:26.863Z,-5.90
2024-01-15T10:18:55.549Z,-5.80
2024-01-15T10:21:24.288Z,-5.80
2024-01-15T10:23:53.278Z,-5.80
2024-01-15T10:26:26.498Z,-5.80
2024-01-15T10:28:55.210Z,-5.80
2024-01-15T10:31:26.330Z,-5.80
2024-01-15T10:33:57.092Z,-5.80
2024-01-15T10:36:25.805Z,-5.80
2024-01-15T10:38:54.439Z,-5.80
2024-01-15T10:41:23.006Z,-5.80
2024-01-15T10:43:51.550Z,-5.80
2024-01-15T10:46:20.328Z,-5.80
2024-01-15T10:48:49.815Z,-5.50
2024-01-15T10:51:18.531Z,-5.70
2024-01-15T10:53:48.408Z,-5.80
2024-01-15T10:56:17.944Z,-5.80
2024-01-15T10:58:47.580Z,-5.60
2024-01-15T11:01:16.451Z,-5.70
2024-01-15T11:03:46.174Z,-5.80
2024-01-15T11:06:22.124Z,-5.80
2024-01-15T11:08:55.047Z,-5.80
2024-01-15T11:11:27.727Z,-5.70
2024-01-15T11:13:56.426Z,-5.80
2024-01-15T11:16:25.007Z,-5.60
2024-01-15T11:18:59.970Z,-5.50
2024-01-15T11:21:31.762Z,-5.60
2024-01-15T11:24:04.254Z,-5.50
2024-01-15T11:26:48.258Z,-5.60
2024-01-15T11:29:37.306Z,-5.50
2024-01-15T11:32:12.808Z,-5.60
2024-01-15T11:35:01.391Z,-5.50
2024-01-15T11:37:48.991Z,-5.60
2024-01-15T11:40:21.329Z,-5.40
2024-01-15T11:42:51.239Z,-5.50
2024-01-15T11:45:23.104Z,-5.80
2024-01-15T11:48:36.035Z,-5.80
2024-01-15T11:51:05.257Z,-5.80
2024-01-15T11:53:49.749Z,-5.80
2024-01-15T11:56:19.197Z,-5.70
2024-01-15T11:58:47.935Z,-5.80
2024-01-15T12:01:16.660Z,-5.80
2024-01-15T12:03:46.634Z,-5.80
2024-01-15T12:06:15.349Z,-5.70
2024-01-15T12:08:43.992Z,-5.80
2024-01-15T12:11:18.085Z,-5.80
2024-01-15T12:13:46.925Z,-5.90
2024-01-15T12:16:15.617Z,-6.00
2024-01-15T12:18:44.420Z,-5.90
2024-01-15T12:21:13.084Z,-6.00
2024-01-15T12:23:42.070Z,-5.80
2024-01-15T12:26:10.787Z,-6.10
2024-01-15T12:28:40.427Z,-6.00
2024-01-15T12:31:09.332Z,-5.90
2024-01-15T12:33:38.591Z,-6.00
2024-01-15T12:36:07.521Z,-6.00
2024-01-15T12:38:36.078Z,-5.80
2024-01-15T12:41:04.739Z,-6.00
2024-01-15T12:43:33.621Z,-5.90
2024-01-15T12:46:02.443Z,-5.90
2024-01-15T12:48:31.216Z,-6.10
2024-01-15T12:50:59.905Z,-6.10
2024-01-15T12:53:28.432Z,-6.00
2024-01-15T12:55:56.961Z,-5.90
2024-01-15T12:58:25.536Z,-6.00
2024-01-15T13:00:54.190Z,-5.80
2024-01-15T13:03:24.715Z,-6.10
2024-01-15T13:05:54.694Z,-5.90
2024-01-15T13:08:25.799Z,-6.00
2024-01-15T13:10:58.175Z,-5.80
2024-01-15T13:13:26.829Z,-5.90
2024-01-15T13:15:55.703Z,-5.90
2024-01-15T13:18:24.456Z,-6.00
2024-01-15T13:20:53.202Z,-5.70
2024-01-15T13:23:41.868Z,-5.90
2024-01-15T13:26:10.608Z,-5.90
2024-01-15T13:28:39.482Z,-5.90
2024-01-15T13:31:08.431Z,-6.00
2024-01-15T13:33:37.682Z,-5.70
2024-01-15T13:36:10.422Z,-5.90
2024-01-15T13:38:43.473Z,-5.80
2024-01-15T13:41:12.135Z,-5.90
2024-01-15T13:43:40.725Z,-5.80
2024-01-15T13:46:09.406Z,-5.80
2024-01-15T13:48:38.010Z,-5.90
2024-01-15T13:51:06.748Z,-5.80
2024-01-15T13:53:35.289Z,-5.80
2024-01-15T13:56:04.348Z,-5.60
2024-01-15T13:58:33.245Z,-5.90
2024-01-15T14:01:02.699Z,-5.80
2024-01-15T14:03:31.824Z,-5.60
2024-01-15T14:06:02.421Z,-6.00
2024-01-15T14:08:30.992Z,-5.80
2024-01-15T14:10:59.705Z,-6.10
2024-01-15T14:13:28.248Z,-6.00
2024-01-15T14:15:57.850Z,-5.80
2024-01-15T14:18:26.579Z,-6.00
2024-01-15T14:20:58.647Z,-5.80
2024-01-15T14:23:27.282Z,-5.70
2024-01-15T14:25:55.806Z,-5.70
2024-01-15T14:28:25.442Z,-5.90
2024-01-15T14:30:54.857Z,-6.00
2024-01-15T14:33:23.657Z,-5.90
2024-01-15T14:35:53.113Z,-6.00
2024-01-15T14:38:21.761Z,-5.80
2024-01-15T14:40:51.325Z,-6.00
2024-01-15T14:43:19.888Z,-5.80
2024-01-15T14:45:48.551Z,-6.10
2024-01-15T14:48:17.341Z,-6.00
2024-01-15T14:50:46.111Z,-5.80
2024-01-15T14:53:14.648Z,-6.10
2024-01-15T14:55:43.253Z,-6.00
2024-01-15T14:58:12.088Z,-5.80
2024-01-15T15:00:40.762Z,-6.10
2024-01-15T15:03:09.469Z,-5.90
2024-01-15T15:05:38.316Z,-6.00
2024-01-15T15:08:10.710Z,-6.30
2024-01-15T15:10:40.214Z,-6.10
2024-01-15T15:13:09.322Z,-6.10
2024-01-15T15:15:38.124Z,-6.00
2024-01-15T15:18:06.992Z,-6.00
2024-01-15T15:20:35.716Z,-6.30
2024-01-15T15:23:05.014Z,-6.00
2024-01-15T15:25:33.592Z,-6.00
2024-01-15T15:28:02.440Z,-5.80
2024-01-15T15:30:31.256Z,-6.10
2024-01-15T15:33:00.314Z,-6.00
2024-01-15T15:35:29.337Z,-6.30
2024-01-15T15:37:57.919Z,-6.10
2024-01-15T15:40:26.538Z,-6.00
2024-01-15T15:42:55.189Z,-5.80
2024-01-15T15:45:23.857Z,-5.80
2024-01-15T15:47:52.520Z,-6.20
2024-01-15T15:50:21.234Z,-6.30
2024-01-15T15:52:49.862Z,-6.00
2024-01-15T15:55:18.408Z,-5.80
2024-01-15T15:57:47.051Z,-6.10
2024-01-15T16:00:16.114Z,-6.00
2024-01-15T16:02:44.683Z,-5.90
2024-01-15T16:05:13.416Z,-6.00
2024-01-15T16:07:42.238Z,-5.80
2024-01-15T16:10:11.668Z,-6.10
2024-01-15T16:12:40.946Z,-6.00
2024-01-15T16:15:30.100Z,-5.80
2024-01-15T16:23:18.179Z,-5.90
2024-01-15T16:23:32.735Z,-5.90
2024-01-15T16:24:06.951Z,-6.00
2024-01-15T16:26:25.377Z,-5.80
2024-01-15T16:28:54.831Z,-6.10
2024-01-15T16:31:23.926Z,-6.00
2024-01-15T16:33:55.587Z,-5.80
2024-01-15T16:36:27.218Z,-5.60
2024-01-15T16:38:55.816Z,-6.00
2024-01-15T16:41:24.509Z,-5.70
2024-01-15T16:43:53.436Z,-5.80
2024-01-15T16:46:22.221Z,-5.70
2024-01-15T16:48:51.169Z,-5.80
2024-01-15T16:51:19.886Z,-5.60
2024-01-15T16:53:48.427Z,-5.90
2024-01-15T16:56:17.217Z,-5.80
2024-01-15T16:58:45.868Z,-5.80
2024-01-15T17:01:14.501Z,-5.70
2024-01-15T17:03:43.086Z,-5.70
2024-01-15T17:06:11.710Z,-5.80
2024-01-15T17:08:40.561Z,-5.80
2024-01-15T17:11:09.779Z,-5.80
2024-01-15T17:13:38.416Z,-5.80
2024-01-15T17:16:07.418Z,-5.80
2024-01-15T17:18:36.077Z,-5.80
2024-01-15T17:21:04.794Z,-5.40
2024-01-15T17:23:33.524Z,-5.50
2024-01-15T17:26:02.180Z,-5.60
2024-01-15T17:28:31.019Z,-5.30
2024-01-15T17:31:01.003Z,-5.40
2024-01-15T17:33:29.704Z,-5.40
2024-01-15T17:36:01.156Z,-5.20
2024-01-15T17:38:31.240Z,-5.20
2024-01-15T17:40:59.963Z,-5.10
2024-01-15T17:43:29.101Z,-5.20
2024-01-15T17:46:00.944Z,-5.10
2024-01-15T17:48:29.828Z,-5.20
2024-01-15T17:50:58.549Z,-5.20
2024-01-15T17:53:27.560Z,-5.00
2024-01-15T17:55:56.214Z,-5.00
2024-01-15T17:58:24.939Z,-4.70
2024-01-15T18:00:53.639Z,-4.80
2024-01-15T18:03:22.287Z,-4.70
2024-01-15T18:05:50.989Z,-4.50
2024-01-15T18:08:19.692Z,-4.50
2024-01-15T18:10:48.288Z,-4.50
2024-01-15T18:13:16.842Z,-4.50
2024-01-15T18:15:45.353Z,-4.50
2024-01-15T18:18:13.984Z,-4.50
2024-01-15T18:20:43.073Z,-4.50
2024-01-15T18:23:11.953Z,-4.40
2024-01-15T18:25:42.418Z,-4.30
2024-01-15T18:28:12.216Z,-4.40
2024-01-15T18:30:40.803Z,-4.30
2024-01-15T18:33:09.784Z,-4.40
2024-01-15T18:35:39.111Z,-4.40
2024-01-15T18:38:08.068Z,-4.30
2024-01-15T18:40:38.210Z,-4.30
2024-01-15T18:43:06.919Z,-4.40
2024-01-15T18:45:37.037Z,-4.20
2024-01-15T18:48:06.184Z,-4.10
2024-01-15T18:50:34.808Z,-4.20
2024-01-15T18:53:03.636Z,-4.10
2024-01-15T18:55:32.218Z,-4.30
2024-01-15T18:58:01.243Z,-3.90
2024-01-15T19:00:29.909Z,-3.90
2024-01-15T19:03:01.557Z,-4.10
2024-01-15T19:05:30.362Z,-3.90
2024-01-15T19:08:01.386Z,-3.90
2024-01-15T19:10:30.048Z,-3.80
2024-01-15T19:12:59.880Z,-4.00
2024-01-15T19:15:28.935Z,-4.10
2024-01-15T19:17:57.570Z,-3.60
2024-01-15T19:20:26.248Z,-3.60
2024-01-15T19:22:54.863Z,-3.50
2024-01-15T19:25:23.619Z,-3.50
2024-01-15T19:27:53.884Z,-3.60
2024-01-15T19:30:22.527Z,-3.50
2024-01-15T19:32:51.545Z,-3.30
2024-01-15T19:35:20.212Z,-3.40
2024-01-15T19:37:49.244Z,-3.50
2024-01-15T19:40:18.883Z,-3.50
2024-01-15T19:42:47.504Z,-3.60
2024-01-15T19:45:16.165Z,-3.50
2024-01-15T19:47:45.757Z,-3.50
2024-01-15T19:50:14.482Z,-3.60
2024-01-15T19:52:43.089Z,-3.30
2024-01-15T19:55:11.836Z,-3.40
2024-01-15T19:57:41.161Z,-3.30
2024-01-15T20:00:10.547Z,-3.30
2024-01-15T20:02:39.367Z,-3.30
2024-01-15T20:05:11.148Z,-3.40
2024-01-15T20:07:39.777Z,-2.90
2024-01-15T20:10:09.377Z,-3.00
2024-01-15T20:12:38.088Z,-2.90
2024-01-15T20:15:07.197Z,-3.10
2024-01-15T20:17:35.968Z,-3.00
2024-01-15T20:20:05.438Z,-3.10
2024-01-15T20:22:35.486Z,-2.90
2024-01-15T20:25:04.379Z,-2.90
2024-01-15T20:27:32.990Z,-2.80
2024-01-15T20:30:07.708Z,-2.90
2024-01-15T20:32:37.740Z,-2.80
2024-01-15T20:35:06.989Z,-2.60
2024-01-15T20:37:35.609Z,-2.50
2024-01-15T20:40:06.863Z,-2.50
2024-01-15T20:42:37.635Z,-2.50
2024-01-15T20:45:06.569Z,-2.50
2024-01-15T20:47:35.151Z,-2.20
2024-01-15T20:50:04.276Z,-2.30
2024-01-15T20:52:32.801Z,-2.40
2024-01-15T20:55:01.395Z,-2.20
2024-01-15T20:57:29.955Z,-2.30
2024-01-15T20:59:58.835Z,-2.40
2024-01-15T21:02:27.615Z,-2.20
2024-01-15T21:04:56.285Z,-2.30
2024-01-15T21:07:24.967Z,-2.40
2024-01-15T21:09:53.516Z,-2.20
2024-01-15T21:12:23.546Z,-2.30
2024-01-15T21:14:54.672Z,-2.40
2024-01-15T21:17:24.797Z,-2.30
2024-01-15T21:19:58.104Z,-2.50
2024-01-15T21:22:26.857Z,-2.50
2024-01-15T21:24:55.397Z,-2.50
2024-01-15T21:27:25.032Z,-2.50
2024-01-15T21:29:53.623Z,-2.50
2024-01-15T21:32:22.903Z,-2.50
2024-01-15T21:34:51.766Z,-2.60
2024-01-15T21:37:20.386Z,-2.50
2024-01-15T21:39:48.960Z,-2.50
2024-01-15T21:42:17.591Z,-2.60
2024-01-15T21:44:46.254Z,-2.70
2024-01-15T21:47:14.910Z,-2.70
2024-01-15T21:49:43.987Z,-2.70
2024-01-15T21:52:12.651Z,-2.70
2024-01-15T21:54:41.166Z,-2.70
2024-01-15T21:57:09.893Z,-2.70
2024-01-15T21:59:38.587Z,-2.70
2024-01-15T22:02:10.529Z,-2.70
2024-01-15T22:04:39.566Z,-2.80
2024-01-15T22:07:08.853Z,-2.70
2024-01-15T22:09:37.956Z,-2.90
2024-01-15T22:12:06.953Z,-2.80
2024-01-15T22:14:35.603Z,-2.60
2024-01-15T22:17:04.206Z,-2.50
2024-01-15T22:19:35.804Z,-2.50
2024-01-15T22:22:04.444Z,-2.50
2024-01-15T22:24:33.004Z,-2.60
2024-01-15T22:27:02.797Z,-2.70
2024-01-15T22:29:32.299Z,-2.70
2024-01-15T22:32:01.184Z,-2.80
2024-01-15T22:34:30.077Z,-2.80
2024-01-15T22:36:59.244Z,-2.90
2024-01-15T22:39:27.744Z,-3.00
2024-01-15T22:41:56.273Z,-2.90
2024-01-15T22:44:24.996Z,-2.90
2024-01-15T22:46:53.587Z,-3.00
2024-01-15T22:49:22.288Z,-3.30
2024-01-15T22:51:50.975Z,-3.40
2024-01-15T22:54:19.637Z,-2.90
2024-01-15T22:56:48.210Z,-3.00
2024-01-15T22:59:23.164Z,-2.90
2024-01-15T23:01:52.212Z,-3.00
2024-01-15T23:04:20.868Z,-3.20
2024-01-15T23:06:49.415Z,-3.30
2024-01-15T23:09:18.105Z,-3.40
2024-01-15T23:11:49.801Z,-3.10
2024-01-15T23:14:18.467Z,-3.40
2024-01-15T23:16:47.049Z,-3.30
2024-01-15T23:19:15.935Z,-3.30
2024-01-15T23:21:45.407Z,-3.30
2024-01-15T23:24:13.963Z,-3.30
2024-01-15T23:26:42.681Z,-3.40
2024-01-15T23:29:11.498Z,-3.10
2024-01-15T23:31:43.471Z,-3.40
2024-01-15T23:34:12.304Z,-3.30
2024-01-15T23:36:43.691Z,-3.30
2024-01-15T23:39:12.855Z,-3.50
2024-01-15T23:41:41.584Z,-3.30
2024-01-15T23:44:10.159Z,-3.40
2024-01-15T23:46:38.734Z,-3.30
2024-01-15T23:49:07.367Z,-3.50
2024-01-15T23:51:36.009Z,-3.70
2024-01-15T23:54:05.130Z,-3.80
2024-01-15T23:56:33.731Z,-3.50
2024-01-15T23:59:02.357Z,-3.70
